sensor_id;sensor_type;location;lat;lon;timestamp;P1;durP1;ratioP1;P2;durP2;ratioP2
38208;SDS011;24016;52.102;11.584;2022-12-18T00:01:03;42.72;;;23.98;;
38208;SDS011;24016;52.102;11.584;2022-12-18T00:03:40;50.92;;;24.58;;
38208;SDS011;24016;52.102;11.584;2022-12-18T00:06:05;46.47;;;25.67;;
38208;SDS011;24016;52.102;11.584;2022-12-18T00:08:31;55.25;;;25.33;;
38208;SDS011;24016;52.102;11.584;2022-12-18T00:11:02;47.72;;;24.42;;
38208;SDS011;24016;52.102;11.584;2022-12-18T00:13:29;45.38;;;24.75;;
38208;SDS011;24016;52.102;11.584;2022-12-18T00:15:54;53.50;;;24.55;;
38208;SDS011;24016;52.102;11.584;2022-12-18T00:18:20;49.78;;;27.10;;
38208;SDS011;24016;52.102;11.584;2022-12-18T00:20:45;54.60;;;23.90;;
38208;SDS011;24016;52.102;11.584;2022-12-18T00:23:11;50.97;;;24.98;;
38208;SDS011;24016;52.102;11.584;2022-12-18T00:25:36;105.47;;;26.80;;
38208;SDS011;24016;52.102;11.584;2022-12-18T00:28:03;46.63;;;25.05;;
38208;SDS011;24016;52.102;11.584;2022-12-18T00:30:29;51.65;;;25.67;;
38208;SDS011;24016;52.102;11.584;2022-12-18T00:32:55;61.22;;;26.20;;
38208;SDS011;24016;52.102;11.584;2022-12-18T00:35:21;47.35;;;24.65;;
38208;SDS011;24016;52.102;11.584;2022-12-18T00:37:46;49.22;;;25.77;;
38208;SDS011;24016;52.102;11.584;2022-12-18T00:40:12;47.13;;;25.65;;
38208;SDS011;24016;52.102;11.584;2022-12-18T00:42:38;45.85;;;25.08;;
38208;SDS011;24016;52.102;11.584;2022-12-18T00:45:25;49.88;;;25.45;;
38208;SDS011;24016;52.102;11.584;2022-12-18T00:47:53;53.55;;;26.27;;
38208;SDS011;24016;52.102;11.584;2022-12-18T00:50:19;45.47;;;24.75;;
38208;SDS011;24016;52.102;11.584;2022-12-18T00:52:45;50.35;;;25.42;;
38208;SDS011;24016;52.102;11.584;2022-12-18T00:55:10;49.38;;;25.73;;
38208;SDS011;24016;52.102;11.584;2022-12-18T00:57:37;48.80;;;25.90;;
38208;SDS011;24016;52.102;11.584;2022-12-18T01:00:03;51.42;;;26.42;;
38208;SDS011;24016;52.102;11.584;2022-12-18T01:02:30;53.78;;;27.05;;
38208;SDS011;24016;52.102;11.584;2022-12-18T01:04:56;55.03;;;27.13;;
38208;SDS011;24016;52.102;11.584;2022-12-18T01:07:21;48.22;;;25.75;;
38208;SDS011;24016;52.102;11.584;2022-12-18T01:09:47;48.70;;;25.55;;
38208;SDS011;24016;52.102;11.584;2022-12-18T01:12:12;52.97;;;26.02;;
38208;SDS011;24016;52.102;11.584;2022-12-18T01:14:38;54.45;;;28.30;;
38208;SDS011;24016;52.102;11.584;2022-12-18T01:17:04;60.42;;;25.52;;
38208;SDS011;24016;52.102;11.584;2022-12-18T01:19:30;53.85;;;26.63;;
38208;SDS011;24016;52.102;11.584;2022-12-18T01:21:55;48.70;;;25.85;;
38208;SDS011;24016;52.102;11.584;2022-12-18T01:24:21;54.00;;;27.85;;
38208;SDS011;24016;52.102;11.584;2022-12-18T01:26:47;53.47;;;25.27;;
38208;SDS011;24016;52.102;11.584;2022-12-18T01:29:12;47.22;;;25.92;;
38208;SDS011;24016;52.102;11.584;2022-12-18T01:31:38;50.38;;;25.70;;
38208;SDS011;24016;52.102;11.584;2022-12-18T01:34:06;48.80;;;26.52;;
38208;SDS011;24016;52.102;11.584;2022-12-18T01:36:33;52.53;;;27.75;;
38208;SDS011;24016;52.102;11.584;2022-12-18T01:39:03;47.35;;;25.33;;
38208;SDS011;24016;52.102;11.584;2022-12-18T01:41:31;54.97;;;26.85;;
38208;SDS011;24016;52.102;11.584;2022-12-18T01:47:18;45.85;;;23.88;;
38208;SDS011;24016;52.102;11.584;2022-12-18T01:49:49;70.43;;;25.30;;
38208;SDS011;24016;52.102;11.584;2022-12-18T01:52:15;74.53;;;24.55;;
38208;SDS011;24016;52.102;11.584;2022-12-18T01:54:42;46.65;;;24.58;;
38208;SDS011;24016;52.102;11.584;2022-12-18T01:57:08;56.20;;;25.95;;
38208;SDS011;24016;52.102;11.584;2022-12-18T01:59:34;61.28;;;23.73;;
38208;SDS011;24016;52.102;11.584;2022-12-18T02:02:01;43.08;;;24.13;;
38208;SDS011;24016;52.102;11.584;2022-12-18T02:04:28;50.28;;;25.67;;
38208;SDS011;24016;52.102;11.584;2022-12-18T02:07:16;51.58;;;26.00;;
38208;SDS011;24016;52.102;11.584;2022-12-18T02:10:02;52.42;;;26.00;;
38208;SDS011;24016;52.102;11.584;2022-12-18T02:12:43;54.67;;;26.40;;
38208;SDS011;24016;52.102;11.584;2022-12-18T02:15:39;53.03;;;24.27;;
38208;SDS011;24016;52.102;11.584;2022-12-18T02:18:19;53.60;;;27.10;;
38208;SDS011;24016;52.102;11.584;2022-12-18T02:20:49;54.78;;;26.10;;
38208;SDS011;24016;52.102;11.584;2022-12-18T02:28:53;54.33;;;26.75;;
38208;SDS011;24016;52.102;11.584;2022-12-18T02:34:01;53.28;;;25.90;;
38208;SDS011;24016;52.102;11.584;2022-12-18T02:36:29;51.67;;;25.90;;
38208;SDS011;24016;52.102;11.584;2022-12-18T02:38:57;57.33;;;27.23;;
38208;SDS011;24016;52.102;11.584;2022-12-18T02:41:24;57.65;;;28.08;;
38208;SDS011;24016;52.102;11.584;2022-12-18T02:43:58;78.15;;;26.85;;
38208;SDS011;24016;52.102;11.584;2022-12-18T02:49:08;43.90;;;23.65;;
38208;SDS011;24016;52.102;11.584;2022-12-18T02:52:05;45.08;;;23.42;;
38208;SDS011;24016;52.102;11.584;2022-12-18T02:57:16;51.40;;;26.33;;
38208;SDS011;24016;52.102;11.584;2022-12-18T03:00:01;44.63;;;24.60;;
38208;SDS011;24016;52.102;11.584;2022-12-18T03:05:38;49.47;;;25.88;;
38208;SDS011;24016;52.102;11.584;2022-12-18T03:08:13;51.65;;;25.30;;
38208;SDS011;24016;52.102;11.584;2022-12-18T03:10:45;50.67;;;25.58;;
38208;SDS011;24016;52.102;11.584;2022-12-18T03:13:23;48.05;;;25.50;;
38208;SDS011;24016;52.102;11.584;2022-12-18T03:15:53;61.92;;;26.73;;
38208;SDS011;24016;52.102;11.584;2022-12-18T03:18:23;52.35;;;26.15;;
38208;SDS011;24016;52.102;11.584;2022-12-18T03:20:54;92.13;;;29.38;;
38208;SDS011;24016;52.102;11.584;2022-12-18T03:23:23;58.75;;;27.60;;
38208;SDS011;24016;52.102;11.584;2022-12-18T03:25:53;56.13;;;27.45;;
38208;SDS011;24016;52.102;11.584;2022-12-18T03:28:23;53.67;;;28.40;;
38208;SDS011;24016;52.102;11.584;2022-12-18T03:30:50;57.58;;;30.10;;
38208;SDS011;24016;52.102;11.584;2022-12-18T03:33:29;58.30;;;29.35;;
38208;SDS011;24016;52.102;11.584;2022-12-18T03:35:59;61.13;;;29.88;;
38208;SDS011;24016;52.102;11.584;2022-12-18T03:38:25;56.80;;;30.10;;
38208;SDS011;24016;52.102;11.584;2022-12-18T03:40:53;59.80;;;29.77;;
38208;SDS011;24016;52.102;11.584;2022-12-18T03:44:03;49.35;;;28.15;;
38208;SDS011;24016;52.102;11.584;2022-12-18T03:52:49;60.28;;;29.77;;
38208;SDS011;24016;52.102;11.584;2022-12-18T03:55:19;61.63;;;30.08;;
38208;SDS011;24016;52.102;11.584;2022-12-18T03:57:47;63.25;;;28.27;;
38208;SDS011;24016;52.102;11.584;2022-12-18T04:00:15;59.53;;;30.83;;
38208;SDS011;24016;52.102;11.584;2022-12-18T04:02:43;57.92;;;29.48;;
38208;SDS011;24016;52.102;11.584;2022-12-18T04:05:15;59.20;;;30.17;;
38208;SDS011;24016;52.102;11.584;2022-12-18T04:07:41;50.45;;;29.45;;
38208;SDS011;24016;52.102;11.584;2022-12-18T04:10:08;56.97;;;29.00;;
38208;SDS011;24016;52.102;11.584;2022-12-18T04:12:36;62.40;;;29.65;;
38208;SDS011;24016;52.102;11.584;2022-12-18T04:15:03;63.22;;;30.73;;
38208;SDS011;24016;52.102;11.584;2022-12-18T04:17:29;62.00;;;29.95;;
38208;SDS011;24016;52.102;11.584;2022-12-18T04:19:55;58.47;;;30.05;;
38208;SDS011;24016;52.102;11.584;2022-12-18T04:22:20;55.78;;;30.80;;
38208;SDS011;24016;52.102;11.584;2022-12-18T04:24:46;55.90;;;29.73;;
38208;SDS011;24016;52.102;11.584;2022-12-18T04:27:12;59.33;;;31.63;;
38208;SDS011;24016;52.102;11.584;2022-12-18T04:29:37;60.22;;;31.98;;
38208;SDS011;24016;52.102;11.584;2022-12-18T04:32:03;54.10;;;29.95;;
38208;SDS011;24016;52.102;11.584;2022-12-18T04:34:28;54.13;;;28.75;;
38208;SDS011;24016;52.102;11.584;2022-12-18T04:36:54;56.97;;;30.33;;
38208;SDS011;24016;52.102;11.584;2022-12-18T04:39:20;61.30;;;30.50;;
38208;SDS011;24016;52.102;11.584;2022-12-18T04:41:45;61.75;;;29.58;;
38208;SDS011;24016;52.102;11.584;2022-12-18T04:44:11;58.38;;;30.30;;
38208;SDS011;24016;52.102;11.584;2022-12-18T04:46:36;60.97;;;30.88;;
38208;SDS011;24016;52.102;11.584;2022-12-18T04:49:02;111.30;;;33.78;;
38208;SDS011;24016;52.102;11.584;2022-12-18T04:51:27;57.05;;;29.65;;
38208;SDS011;24016;52.102;11.584;2022-12-18T04:53:53;59.17;;;30.92;;
38208;SDS011;24016;52.102;11.584;2022-12-18T04:56:19;61.28;;;31.77;;
38208;SDS011;24016;52.102;11.584;2022-12-18T04:58:44;61.20;;;31.10;;
38208;SDS011;24016;52.102;11.584;2022-12-18T05:01:10;56.47;;;30.17;;
38208;SDS011;24016;52.102;11.584;2022-12-18T05:03:37;55.95;;;30.60;;
38208;SDS011;24016;52.102;11.584;2022-12-18T05:06:03;57.60;;;29.52;;
38208;SDS011;24016;52.102;11.584;2022-12-18T05:08:29;60.08;;;30.42;;
38208;SDS011;24016;52.102;11.584;2022-12-18T05:11:14;105.78;;;31.92;;
38208;SDS011;24016;52.102;11.584;2022-12-18T05:13:40;59.95;;;31.20;;
38208;SDS011;24016;52.102;11.584;2022-12-18T05:16:07;57.00;;;29.33;;
38208;SDS011;24016;52.102;11.584;2022-12-18T05:18:33;56.92;;;29.77;;
38208;SDS011;24016;52.102;11.584;2022-12-18T05:20:59;51.08;;;29.50;;
38208;SDS011;24016;52.102;11.584;2022-12-18T05:23:25;57.95;;;30.98;;
38208;SDS011;24016;52.102;11.584;2022-12-18T05:25:52;66.20;;;30.60;;
38208;SDS011;24016;52.102;11.584;2022-12-18T05:28:23;59.20;;;31.05;;
38208;SDS011;24016;52.102;11.584;2022-12-18T05:30:50;59.13;;;30.38;;
38208;SDS011;24016;52.102;11.584;2022-12-18T05:33:18;55.88;;;28.67;;
38208;SDS011;24016;52.102;11.584;2022-12-18T05:35:49;58.33;;;30.02;;
38208;SDS011;24016;52.102;11.584;2022-12-18T05:40:42;63.20;;;27.60;;
38208;SDS011;24016;52.102;11.584;2022-12-18T05:43:08;61.17;;;31.23;;
38208;SDS011;24016;52.102;11.584;2022-12-18T05:45:36;60.92;;;31.70;;
38208;SDS011;24016;52.102;11.584;2022-12-18T05:48:03;62.97;;;31.95;;
38208;SDS011;24016;52.102;11.584;2022-12-18T05:50:29;60.75;;;29.85;;
38208;SDS011;24016;52.102;11.584;2022-12-18T05:52:54;65.45;;;30.40;;
38208;SDS011;24016;52.102;11.584;2022-12-18T05:55:20;63.88;;;32.80;;
38208;SDS011;24016;52.102;11.584;2022-12-18T05:57:45;70.47;;;33.60;;
38208;SDS011;24016;52.102;11.584;2022-12-18T06:00:11;64.65;;;31.25;;
38208;SDS011;24016;52.102;11.584;2022-12-18T06:02:37;63.60;;;33.10;;
38208;SDS011;24016;52.102;11.584;2022-12-18T06:05:03;69.53;;;32.90;;
38208;SDS011;24016;52.102;11.584;2022-12-18T06:07:29;68.93;;;33.05;;
38208;SDS011;24016;52.102;11.584;2022-12-18T06:09:54;70.85;;;34.20;;
38208;SDS011;24016;52.102;11.584;2022-12-18T06:12:20;68.97;;;33.75;;
38208;SDS011;24016;52.102;11.584;2022-12-18T06:14:46;71.88;;;35.50;;
38208;SDS011;24016;52.102;11.584;2022-12-18T06:17:11;66.40;;;34.90;;
38208;SDS011;24016;52.102;11.584;2022-12-18T06:19:37;70.88;;;37.17;;
38208;SDS011;24016;52.102;11.584;2022-12-18T06:22:02;67.95;;;34.67;;
38208;SDS011;24016;52.102;11.584;2022-12-18T06:24:28;68.15;;;36.00;;
38208;SDS011;24016;52.102;11.584;2022-12-18T06:26:54;66.03;;;34.00;;
38208;SDS011;24016;52.102;11.584;2022-12-18T06:29:20;68.88;;;35.25;;
38208;SDS011;24016;52.102;11.584;2022-12-18T06:31:45;59.75;;;31.85;;
38208;SDS011;24016;52.102;11.584;2022-12-18T06:34:11;61.33;;;34.10;;
38208;SDS011;24016;52.102;11.584;2022-12-18T06:36:36;62.15;;;33.45;;
38208;SDS011;24016;52.102;11.584;2022-12-18T06:39:02;69.82;;;35.35;;
38208;SDS011;24016;52.102;11.584;2022-12-18T06:41:28;67.65;;;34.47;;
38208;SDS011;24016;52.102;11.584;2022-12-18T06:43:53;62.83;;;35.72;;
38208;SDS011;24016;52.102;11.584;2022-12-18T06:46:19;58.88;;;32.60;;
38208;SDS011;24016;52.102;11.584;2022-12-18T06:48:48;67.30;;;32.60;;
38208;SDS011;24016;52.102;11.584;2022-12-18T06:51:21;58.17;;;33.03;;
38208;SDS011;24016;52.102;11.584;2022-12-18T06:53:47;61.72;;;32.25;;
38208;SDS011;24016;52.102;11.584;2022-12-18T06:56:13;56.75;;;32.67;;
38208;SDS011;24016;52.102;11.584;2022-12-18T06:58:39;61.03;;;32.28;;
38208;SDS011;24016;52.102;11.584;2022-12-18T07:01:06;63.88;;;32.25;;
38208;SDS011;24016;52.102;11.584;2022-12-18T07:03:33;61.53;;;33.05;;
38208;SDS011;24016;52.102;11.584;2022-12-18T07:05:59;61.20;;;33.70;;
38208;SDS011;24016;52.102;11.584;2022-12-18T07:08:25;59.55;;;33.33;;
38208;SDS011;24016;52.102;11.584;2022-12-18T07:10:51;53.70;;;31.08;;
38208;SDS011;24016;52.102;11.584;2022-12-18T07:13:16;62.42;;;33.58;;
38208;SDS011;24016;52.102;11.584;2022-12-18T07:15:42;57.80;;;32.55;;
38208;SDS011;24016;52.102;11.584;2022-12-18T07:18:08;61.85;;;32.25;;
38208;SDS011;24016;52.102;11.584;2022-12-18T07:20:34;62.67;;;33.65;;
38208;SDS011;24016;52.102;11.584;2022-12-18T07:23:01;58.85;;;32.67;;
38208;SDS011;24016;52.102;11.584;2022-12-18T07:25:28;65.95;;;33.58;;
38208;SDS011;24016;52.102;11.584;2022-12-18T07:27:54;61.13;;;31.83;;
38208;SDS011;24016;52.102;11.584;2022-12-18T07:30:19;69.40;;;35.17;;
38208;SDS011;24016;52.102;11.584;2022-12-18T07:32:45;65.32;;;34.03;;
38208;SDS011;24016;52.102;11.584;2022-12-18T07:35:10;59.58;;;31.92;;
38208;SDS011;24016;52.102;11.584;2022-12-18T07:37:36;65.18;;;32.65;;
38208;SDS011;24016;52.102;11.584;2022-12-18T07:40:01;59.35;;;33.08;;
38208;SDS011;24016;52.102;11.584;2022-12-18T07:42:27;57.28;;;32.20;;
38208;SDS011;24016;52.102;11.584;2022-12-18T07:44:56;56.97;;;31.92;;
38208;SDS011;24016;52.102;11.584;2022-12-18T07:47:22;61.90;;;33.90;;
38208;SDS011;24016;52.102;11.584;2022-12-18T07:49:47;63.95;;;33.08;;
38208;SDS011;24016;52.102;11.584;2022-12-18T07:52:13;63.35;;;33.33;;
38208;SDS011;24016;52.102;11.584;2022-12-18T07:54:39;62.75;;;32.42;;
38208;SDS011;24016;52.102;11.584;2022-12-18T07:57:05;58.17;;;32.13;;
38208;SDS011;24016;52.102;11.584;2022-12-18T07:59:31;56.50;;;31.38;;
38208;SDS011;24016;52.102;11.584;2022-12-18T08:01:56;59.47;;;32.25;;
38208;SDS011;24016;52.102;11.584;2022-12-18T08:04:22;61.05;;;31.40;;
38208;SDS011;24016;52.102;11.584;2022-12-18T08:06:47;54.80;;;31.38;;
38208;SDS011;24016;52.102;11.584;2022-12-18T08:09:13;54.10;;;30.25;;
38208;SDS011;24016;52.102;11.584;2022-12-18T08:11:38;53.60;;;29.48;;
38208;SDS011;24016;52.102;11.584;2022-12-18T08:14:04;52.83;;;30.65;;
38208;SDS011;24016;52.102;11.584;2022-12-18T08:16:30;52.22;;;29.38;;
38208;SDS011;24016;52.102;11.584;2022-12-18T08:18:55;51.75;;;28.58;;
38208;SDS011;24016;52.102;11.584;2022-12-18T08:21:22;52.13;;;28.75;;
38208;SDS011;24016;52.102;11.584;2022-12-18T08:23:50;52.35;;;28.75;;
38208;SDS011;24016;52.102;11.584;2022-12-18T08:26:17;52.47;;;30.20;;
38208;SDS011;24016;52.102;11.584;2022-12-18T08:28:43;50.20;;;29.33;;
38208;SDS011;24016;52.102;11.584;2022-12-18T08:31:09;58.42;;;31.02;;
38208;SDS011;24016;52.102;11.584;2022-12-18T08:33:36;56.35;;;31.27;;
38208;SDS011;24016;52.102;11.584;2022-12-18T08:36:03;55.25;;;30.10;;
38208;SDS011;24016;52.102;11.584;2022-12-18T08:38:29;54.25;;;29.75;;
38208;SDS011;24016;52.102;11.584;2022-12-18T08:40:59;55.25;;;30.17;;
38208;SDS011;24016;52.102;11.584;2022-12-18T08:43:26;46.55;;;28.25;;
38208;SDS011;24016;52.102;11.584;2022-12-18T08:46:10;55.20;;;30.00;;
38208;SDS011;24016;52.102;11.584;2022-12-18T08:48:36;50.85;;;28.50;;
38208;SDS011;24016;52.102;11.584;2022-12-18T08:51:01;50.05;;;27.40;;
38208;SDS011;24016;52.102;11.584;2022-12-18T08:53:27;49.10;;;28.80;;
38208;SDS011;24016;52.102;11.584;2022-12-18T08:55:53;50.88;;;28.40;;
38208;SDS011;24016;52.102;11.584;2022-12-18T08:58:19;47.95;;;27.98;;
38208;SDS011;24016;52.102;11.584;2022-12-18T09:00:44;47.17;;;27.90;;
38208;SDS011;24016;52.102;11.584;2022-12-18T09:03:11;46.47;;;27.90;;
38208;SDS011;24016;52.102;11.584;2022-12-18T09:05:37;48.58;;;27.08;;
38208;SDS011;24016;52.102;11.584;2022-12-18T09:08:03;48.67;;;27.80;;
38208;SDS011;24016;52.102;11.584;2022-12-18T09:10:28;45.50;;;26.63;;
38208;SDS011;24016;52.102;11.584;2022-12-18T09:12:54;47.70;;;28.50;;
38208;SDS011;24016;52.102;11.584;2022-12-18T09:15:21;49.78;;;29.85;;
38208;SDS011;24016;52.102;11.584;2022-12-18T09:17:47;46.38;;;29.10;;
38208;SDS011;24016;52.102;11.584;2022-12-18T09:20:13;46.33;;;28.60;;
38208;SDS011;24016;52.102;11.584;2022-12-18T09:22:38;44.60;;;27.25;;
38208;SDS011;24016;52.102;11.584;2022-12-18T09:25:04;44.33;;;27.92;;
38208;SDS011;24016;52.102;11.584;2022-12-18T09:27:32;47.97;;;29.02;;
38208;SDS011;24016;52.102;11.584;2022-12-18T09:29:58;46.63;;;26.92;;
38208;SDS011;24016;52.102;11.584;2022-12-18T09:32:24;44.63;;;26.65;;
38208;SDS011;24016;52.102;11.584;2022-12-18T09:34:50;40.45;;;25.00;;
38208;SDS011;24016;52.102;11.584;2022-12-18T09:37:15;45.53;;;25.58;;
38208;SDS011;24016;52.102;11.584;2022-12-18T09:39:41;50.50;;;26.45;;
38208;SDS011;24016;52.102;11.584;2022-12-18T09:42:06;43.03;;;26.33;;
38208;SDS011;24016;52.102;11.584;2022-12-18T09:44:43;44.05;;;26.10;;
38208;SDS011;24016;52.102;11.584;2022-12-18T09:47:23;42.33;;;27.20;;
38208;SDS011;24016;52.102;11.584;2022-12-18T09:49:55;44.38;;;25.70;;
38208;SDS011;24016;52.102;11.584;2022-12-18T09:52:29;45.88;;;26.13;;
38208;SDS011;24016;52.102;11.584;2022-12-18T09:55:22;38.25;;;26.40;;
38208;SDS011;24016;52.102;11.584;2022-12-18T09:57:53;50.80;;;30.08;;
38208;SDS011;24016;52.102;11.584;2022-12-18T10:00:26;51.67;;;29.55;;
38208;SDS011;24016;52.102;11.584;2022-12-18T10:02:52;45.15;;;27.42;;
38208;SDS011;24016;52.102;11.584;2022-12-18T10:05:34;46.95;;;27.58;;
38208;SDS011;24016;52.102;11.584;2022-12-18T10:10:43;41.42;;;26.20;;
38208;SDS011;24016;52.102;11.584;2022-12-18T10:13:18;45.17;;;27.55;;
38208;SDS011;24016;52.102;11.584;2022-12-18T10:18:31;44.17;;;25.83;;
38208;SDS011;24016;52.102;11.584;2022-12-18T10:21:19;48.40;;;26.02;;
38208;SDS011;24016;52.102;11.584;2022-12-18T10:23:54;37.85;;;24.33;;
38208;SDS011;24016;52.102;11.584;2022-12-18T10:26:33;44.42;;;29.92;;
38208;SDS011;24016;52.102;11.584;2022-12-18T10:28:59;48.75;;;32.05;;
38208;SDS011;24016;52.102;11.584;2022-12-18T10:31:25;72.90;;;51.05;;
38208;SDS011;24016;52.102;11.584;2022-12-18T10:33:51;43.03;;;26.23;;
38208;SDS011;24016;52.102;11.584;2022-12-18T10:36:19;34.47;;;22.88;;
38208;SDS011;24016;52.102;11.584;2022-12-18T10:38:45;36.15;;;22.60;;
38208;SDS011;24016;52.102;11.584;2022-12-18T10:43:43;41.17;;;29.13;;
38208;SDS011;24016;52.102;11.584;2022-12-18T10:51:19;36.47;;;22.00;;
38208;SDS011;24016;52.102;11.584;2022-12-18T10:53:51;33.75;;;20.85;;
38208;SDS011;24016;52.102;11.584;2022-12-18T10:56:20;35.47;;;21.73;;
38208;SDS011;24016;52.102;11.584;2022-12-18T10:58:54;36.05;;;21.85;;
38208;SDS011;24016;52.102;11.584;2022-12-18T11:01:22;32.45;;;20.42;;
38208;SDS011;24016;52.102;11.584;2022-12-18T11:04:09;36.65;;;21.17;;
38208;SDS011;24016;52.102;11.584;2022-12-18T11:06:34;31.23;;;20.17;;
38208;SDS011;24016;52.102;11.584;2022-12-18T11:09:24;33.08;;;19.83;;
38208;SDS011;24016;52.102;11.584;2022-12-18T11:11:52;38.70;;;20.75;;
38208;SDS011;24016;52.102;11.584;2022-12-18T11:17:17;30.58;;;19.92;;
38208;SDS011;24016;52.102;11.584;2022-12-18T11:19:56;35.65;;;21.30;;
38208;SDS011;24016;52.102;11.584;2022-12-18T11:22:32;32.20;;;20.17;;
38208;SDS011;24016;52.102;11.584;2022-12-18T11:27:27;36.78;;;24.48;;
38208;SDS011;24016;52.102;11.584;2022-12-18T11:30:06;27.05;;;18.67;;
38208;SDS011;24016;52.102;11.584;2022-12-18T11:32:45;45.88;;;25.38;;
38208;SDS011;24016;52.102;11.584;2022-12-18T11:38:10;33.72;;;21.42;;
38208;SDS011;24016;52.102;11.584;2022-12-18T11:40:47;24.95;;;15.63;;
38208;SDS011;24016;52.102;11.584;2022-12-18T11:43:29;33.17;;;19.20;;
38208;SDS011;24016;52.102;11.584;2022-12-18T11:46:13;27.58;;;17.92;;
38208;SDS011;24016;52.102;11.584;2022-12-18T11:48:49;26.45;;;16.75;;
38208;SDS011;24016;52.102;11.584;2022-12-18T11:51:25;28.98;;;17.85;;
38208;SDS011;24016;52.102;11.584;2022-12-18T11:54:00;32.97;;;20.90;;
38208;SDS011;24016;52.102;11.584;2022-12-18T11:59:09;37.75;;;21.67;;
38208;SDS011;24016;52.102;11.584;2022-12-18T12:01:42;26.13;;;17.13;;
38208;SDS011;24016;52.102;11.584;2022-12-18T12:07:21;26.58;;;16.60;;
38208;SDS011;24016;52.102;11.584;2022-12-18T12:10:39;27.05;;;17.50;;
38208;SDS011;24016;52.102;11.584;2022-12-18T12:12:52;29.13;;;19.45;;
38208;SDS011;24016;52.102;11.584;2022-12-18T12:15:32;32.30;;;19.10;;
38208;SDS011;24016;52.102;11.584;2022-12-18T12:20:55;32.13;;;20.17;;
38208;SDS011;24016;52.102;11.584;2022-12-18T12:23:34;26.45;;;18.05;;
38208;SDS011;24016;52.102;11.584;2022-12-18T12:29:14;28.45;;;19.00;;
38208;SDS011;24016;52.102;11.584;2022-12-18T12:40:34;36.58;;;21.15;;
38208;SDS011;24016;52.102;11.584;2022-12-18T12:43:10;32.70;;;20.85;;
38208;SDS011;24016;52.102;11.584;2022-12-18T12:45:49;30.48;;;20.25;;
38208;SDS011;24016;52.102;11.584;2022-12-18T12:51:11;31.85;;;20.17;;
38208;SDS011;24016;52.102;11.584;2022-12-18T12:53:44;33.10;;;22.92;;
38208;SDS011;24016;52.102;11.584;2022-12-18T12:56:11;31.85;;;20.30;;
38208;SDS011;24016;52.102;11.584;2022-12-18T13:01:23;27.75;;;19.27;;
38208;SDS011;24016;52.102;11.584;2022-12-18T13:09:36;27.60;;;18.58;;
38208;SDS011;24016;52.102;11.584;2022-12-18T13:12:56;29.35;;;18.55;;
38208;SDS011;24016;52.102;11.584;2022-12-18T13:18:02;31.38;;;19.70;;
38208;SDS011;24016;52.102;11.584;2022-12-18T13:25:58;27.88;;;19.08;;
38208;SDS011;24016;52.102;11.584;2022-12-18T13:31:57;28.10;;;17.85;;
38208;SDS011;24016;52.102;11.584;2022-12-18T13:34:20;28.50;;;18.27;;
38208;SDS011;24016;52.102;11.584;2022-12-18T13:36:46;27.98;;;19.20;;
38208;SDS011;24016;52.102;11.584;2022-12-18T13:46:59;32.83;;;19.13;;
38208;SDS011;24016;52.102;11.584;2022-12-18T13:52:00;31.33;;;19.02;;
38208;SDS011;24016;52.102;11.584;2022-12-18T13:59:57;29.35;;;19.27;;
38208;SDS011;24016;52.102;11.584;2022-12-18T14:02:24;29.90;;;19.73;;
38208;SDS011;24016;52.102;11.584;2022-12-18T14:04:52;28.88;;;18.98;;
38208;SDS011;24016;52.102;11.584;2022-12-18T14:07:25;28.70;;;19.52;;
38208;SDS011;24016;52.102;11.584;2022-12-18T14:09:56;29.73;;;18.15;;
38208;SDS011;24016;52.102;11.584;2022-12-18T14:12:26;30.42;;;19.98;;
38208;SDS011;24016;52.102;11.584;2022-12-18T14:17:44;32.50;;;19.90;;
38208;SDS011;24016;52.102;11.584;2022-12-18T14:20:14;34.38;;;21.42;;
38208;SDS011;24016;52.102;11.584;2022-12-18T14:22:45;39.38;;;21.80;;
38208;SDS011;24016;52.102;11.584;2022-12-18T14:27:38;38.03;;;22.38;;
38208;SDS011;24016;52.102;11.584;2022-12-18T14:30:24;39.03;;;22.38;;
38208;SDS011;24016;52.102;11.584;2022-12-18T14:33:00;38.30;;;22.25;;
38208;SDS011;24016;52.102;11.584;2022-12-18T14:35:31;38.08;;;22.20;;
38208;SDS011;24016;52.102;11.584;2022-12-18T14:40:44;38.25;;;20.83;;
38208;SDS011;24016;52.102;11.584;2022-12-18T14:43:11;40.42;;;22.75;;
38208;SDS011;24016;52.102;11.584;2022-12-18T14:45:40;42.38;;;23.75;;
38208;SDS011;24016;52.102;11.584;2022-12-18T14:48:15;43.67;;;23.55;;
38208;SDS011;24016;52.102;11.584;2022-12-18T14:50:43;56.03;;;26.48;;
38208;SDS011;24016;52.102;11.584;2022-12-18T14:53:19;48.33;;;25.67;;
38208;SDS011;24016;52.102;11.584;2022-12-18T14:55:48;48.10;;;23.77;;
38208;SDS011;24016;52.102;11.584;2022-12-18T14:58:15;45.10;;;25.88;;
38208;SDS011;24016;52.102;11.584;2022-12-18T15:00:42;55.00;;;29.70;;
38208;SDS011;24016;52.102;11.584;2022-12-18T15:03:08;48.22;;;26.10;;
38208;SDS011;24016;52.102;11.584;2022-12-18T15:05:35;65.63;;;32.75;;
38208;SDS011;24016;52.102;11.584;2022-12-18T15:08:00;53.33;;;28.90;;
38208;SDS011;24016;52.102;11.584;2022-12-18T15:10:31;52.00;;;27.92;;
38208;SDS011;24016;52.102;11.584;2022-12-18T15:15:46;54.38;;;28.63;;
38208;SDS011;24016;52.102;11.584;2022-12-18T15:18:30;63.55;;;29.50;;
38208;SDS011;24016;52.102;11.584;2022-12-18T15:21:00;57.45;;;27.63;;
38208;SDS011;24016;52.102;11.584;2022-12-18T15:23:38;52.47;;;28.40;;
38208;SDS011;24016;52.102;11.584;2022-12-18T15:26:16;50.10;;;25.90;;
38208;SDS011;24016;52.102;11.584;2022-12-18T15:28:52;47.95;;;26.27;;
38208;SDS011;24016;52.102;11.584;2022-12-18T15:31:30;52.25;;;26.67;;
38208;SDS011;24016;52.102;11.584;2022-12-18T15:34:01;77.43;;;31.70;;
38208;SDS011;24016;52.102;11.584;2022-12-18T15:36:35;55.22;;;28.92;;
38208;SDS011;24016;52.102;11.584;2022-12-18T15:39:03;50.60;;;26.15;;
38208;SDS011;24016;52.102;11.584;2022-12-18T15:41:30;87.35;;;33.80;;
38208;SDS011;24016;52.102;11.584;2022-12-18T15:44:00;69.35;;;30.85;;
38208;SDS011;24016;52.102;11.584;2022-12-18T15:46:26;86.07;;;37.28;;
38208;SDS011;24016;52.102;11.584;2022-12-18T15:48:56;81.75;;;34.97;;
38208;SDS011;24016;52.102;11.584;2022-12-18T15:51:29;57.63;;;30.20;;
38208;SDS011;24016;52.102;11.584;2022-12-18T15:53:58;80.20;;;36.40;;
38208;SDS011;24016;52.102;11.584;2022-12-18T15:56:25;58.30;;;29.20;;
38208;SDS011;24016;52.102;11.584;2022-12-18T15:59:14;60.47;;;30.25;;
38208;SDS011;24016;52.102;11.584;2022-12-18T16:01:41;67.05;;;35.35;;
38208;SDS011;24016;52.102;11.584;2022-12-18T16:04:13;56.05;;;28.85;;
38208;SDS011;24016;52.102;11.584;2022-12-18T16:06:40;54.97;;;26.70;;
38208;SDS011;24016;52.102;11.584;2022-12-18T16:09:06;61.80;;;30.90;;
38208;SDS011;24016;52.102;11.584;2022-12-18T16:11:32;60.30;;;31.95;;
38208;SDS011;24016;52.102;11.584;2022-12-18T16:14:18;55.28;;;26.88;;
38208;SDS011;24016;52.102;11.584;2022-12-18T16:16:47;52.50;;;27.45;;
38208;SDS011;24016;52.102;11.584;2022-12-18T16:19:14;48.47;;;25.40;;
38208;SDS011;24016;52.102;11.584;2022-12-18T16:21:41;49.03;;;26.63;;